Time;durP1;ratioP1;P1;durP2;ratioP2;P2;SDS_P1;SDS_P2;PMS_P1;PMS_P2;Temp;Humidity;BMP_temperature;BMP_pressure;BME280_temperature;BME280_humidity;BME280_pressure;Samples;Min_cycle;Max_cycle;Signal;HPM_P1;HPM_P2
2022/10/10 00:01:07;;;;;;;0.10;0.10;;;11.10;99.90;;;;;;5050304;28;20508;-77
2022/10/10 00:03:33;;;;;;;0.05;0.05;;;11.00;99.90;;;;;;5033561;28;20366;-77
2022/10/10 00:05:59;;;;;;;0.05;0.05;;;10.90;99.90;;;;;;5051409;28;20504;-79
2022/10/10 00:08:25;;;;;;;0.10;0.10;;;10.90;99.90;;;;;;5052212;28;20085;-77
2022/10/10 00:10:50;;;;;;;0.10;0.10;;;11.00;99.90;;;;;;5055295;28;20028;-77
2022/10/10 00:13:16;;;;;;;0.60;0.60;;;11.10;99.90;;;;;;5055289;28;20029;-76
2022/10/10 00:15:42;;;;;;;0.10;0.10;;;11.20;99.90;;;;;;5054983;28;20533;-77
2022/10/10 00:18:08;;;;;;;0.10;0.10;;;11.20;99.90;;;;;;5055350;28;20381;-77
2022/10/10 00:20:34;;;;;;;0.08;0.08;;;11.10;99.90;;;;;;5055185;28;20017;-77
2022/10/10 00:23:00;;;;;;;0.00;0.00;;;10.90;99.90;;;;;;5037062;28;20021;-78
2022/10/10 00:25:26;;;;;;;0.08;0.08;;;10.80;99.90;;;;;;5054881;28;20362;-80
2022/10/10 00:27:51;;;;;;;0.00;0.00;;;11.00;99.90;;;;;;5053573;28;20029;-80
2022/10/10 00:30:17;;;;;;;0.10;0.10;;;11.00;99.90;;;;;;5053713;28;20056;-77
2022/10/10 00:32:43;;;;;;;0.10;0.10;;;10.90;99.90;;;;;;5053782;28;20415;-77
2022/10/10 00:35:09;;;;;;;0.08;0.08;;;11.00;99.90;;;;;;5054492;28;20417;-77
2022/10/10 00:37:34;;;;;;;0.30;0.30;;;10.80;99.90;;;;;;5054941;28;20075;-78
2022/10/10 00:40:00;;;;;;;0.35;0.35;;;10.80;99.90;;;;;;5054779;28;20032;-77
2022/10/10 00:42:26;;;;;;;0.10;0.10;;;10.80;99.90;;;;;;5053481;28;20485;-77
2022/10/10 00:45:26;;;;;;;0.10;0.10;;;10.70;99.90;;;;;;5054493;28;20029;-77
2022/10/10 00:48:05;;;;;;;0.10;0.10;;;10.50;99.90;;;;;;5053302;28;20542;-78
2022/10/10 00:50:37;;;;;;;0.10;0.10;;;10.30;99.90;;;;;;5053414;28;20500;-76
2022/10/10 00:53:05;;;;;;;0.10;0.10;;;10.20;99.90;;;;;;5053373;28;20070;-77
2022/10/10 00:55:32;;;;;;;0.10;0.10;;;10.30;99.90;;;;;;5054422;28;20067;-77
2022/10/10 00:57:58;;;;;;;0.10;0.10;;;10.60;99.90;;;;;;5036446;28;20395;-78
2022/10/10 01:00:23;;;;;;;0.10;0.10;;;10.80;99.90;;;;;;5053072;28;20029;-77
2022/10/10 01:02:49;;;;;;;0.10;0.10;;;10.80;99.90;;;;;;5054326;28;20087;-76
2022/10/10 01:05:15;;;;;;;0.13;0.13;;;10.70;99.90;;;;;;5054142;28;20154;-77
2022/10/10 01:07:43;;;;;;;1.15;1.05;;;10.80;99.90;;;;;;5052874;28;20112;-76
2022/10/10 01:10:14;;;;;;;0.10;0.10;;;10.90;99.90;;;;;;5054260;28;20519;-79
2022/10/10 01:13:01;;;;;;;0.10;0.10;;;10.90;99.90;;;;;;5054162;28;20025;-77
2022/10/10 01:15:46;;;;;;;0.10;0.10;;;11.00;99.90;;;;;;5054028;28;20022;-77
2022/10/10 01:18:26;;;;;;;0.10;0.10;;;11.10;99.90;;;;;;5054135;28;20025;-77
2022/10/10 01:20:54;;;;;;;0.10;0.10;;;11.10;99.90;;;;;;5053212;28;20025;-76
2022/10/10 01:23:51;;;;;;;0.10;0.10;;;11.10;99.90;;;;;;5052722;28;20397;-77
2022/10/10 01:27:12;;;;;;;0.82;0.82;;;10.90;99.90;;;;;;5035935;28;20111;-77
2022/10/10 01:30:01;;;;;;;0.10;0.10;;;10.80;99.90;;;;;;4975650;28;20101;-77
2022/10/10 01:32:38;;;;;;;0.00;0.00;;;10.80;99.90;;;;;;5052531;28;20096;-78
2022/10/10 01:35:35;;;;;;;0.10;0.10;;;10.60;99.90;;;;;;5053382;28;20019;-77
2022/10/10 01:38:32;;;;;;;0.10;0.10;;;10.60;99.90;;;;;;5051669;28;20033;-78
2022/10/10 01:41:14;;;;;;;0.10;0.10;;;10.60;99.90;;;;;;5052471;28;20124;-77
2022/10/10 01:43:40;;;;;;;0.10;0.10;;;10.80;99.90;;;;;;5053626;28;20017;-77
2022/10/10 01:46:11;;;;;;;0.10;0.10;;;10.90;99.90;;;;;;5052090;28;20503;-77
2022/10/10 01:48:38;;;;;;;0.10;0.10;;;10.90;99.90;;;;;;5035793;28;20025;-78
2022/10/10 01:51:19;;;;;;;0.10;0.10;;;10.90;99.90;;;;;;5053462;28;20025;-77
2022/10/10 01:54:03;;;;;;;0.10;0.10;;;10.80;99.90;;;;;;5053296;28;20024;-77
2022/10/10 01:56:32;;;;;;;0.22;0.22;;;10.80;99.90;;;;;;5052084;28;20441;-76
2022/10/10 01:59:32;;;;;;;0.10;0.10;;;10.60;99.90;;;;;;5053256;28;20499;-78
2022/10/10 02:02:15;;;;;;;0.10;0.10;;;10.40;99.90;;;;;;5047417;28;20044;-77
2022/10/10 02:04:55;;;;;;;0.10;0.10;;;10.30;99.90;;;;;;5051958;28;20021;-76
2022/10/10 02:07:31;;;;;;;0.10;0.10;;;10.30;99.90;;;;;;5035248;28;20374;-77
2022/10/10 02:10:00;;;;;;;0.10;0.10;;;10.30;99.90;;;;;;5052067;28;20029;-77
2022/10/10 02:12:28;;;;;;;0.10;0.10;;;10.30;99.90;;;;;;5051795;28;20029;-80
2022/10/10 02:15:00;;;;;;;0.10;0.10;;;10.40;99.90;;;;;;5051489;28;20493;-78
2022/10/10 02:17:26;;;;;;;0.10;0.10;;;10.50;99.90;;;;;;5035037;28;20021;-79
2022/10/10 02:19:56;;;;;;;0.10;0.10;;;10.60;99.90;;;;;;5051760;28;20033;-76
2022/10/10 02:22:23;;;;;;;0.38;0.38;;;10.70;99.90;;;;;;5051523;28;20043;-76
2022/10/10 02:24:51;;;;;;;0.10;0.10;;;10.80;99.90;;;;;;5051406;28;20541;-77
2022/10/10 02:27:32;;;;;;;0.08;0.08;;;10.70;99.90;;;;;;5051324;28;20021;-76
2022/10/10 02:29:59;;;;;;;0.10;0.10;;;10.60;99.90;;;;;;5051101;28;20032;-76
2022/10/10 02:32:54;;;;;;;0.10;0.10;;;10.40;99.90;;;;;;5051280;28;20086;-77
2022/10/10 02:35:38;;;;;;;0.10;0.10;;;10.40;99.90;;;;;;5052175;28;20043;-77
2022/10/10 02:38:06;;;;;;;0.10;0.10;;;10.30;99.90;;;;;;5052634;28;20021;-77
2022/10/10 02:40:34;;;;;;;0.10;0.10;;;10.30;99.90;;;;;;5051286;28;20029;-76
2022/10/10 02:43:03;;;;;;;0.30;0.30;;;10.30;99.90;;;;;;5051187;28;20036;-77
2022/10/10 02:45:31;;;;;;;0.10;0.10;;;10.40;99.90;;;;;;5052126;28;20040;-77
2022/10/10 02:47:59;;;;;;;0.08;0.08;;;10.40;99.90;;;;;;5052476;28;20358;-77
2022/10/10 02:50:26;;;;;;;0.00;0.00;;;10.20;99.90;;;;;;5051095;28;20032;-77
2022/10/10 02:52:51;;;;;;;0.65;0.45;;;10.20;99.90;;;;;;5052297;28;20021;-77
2022/10/10 02:55:17;;;;;;;0.10;0.10;;;10.10;99.90;;;;;;5050780;28;20077;-77
2022/10/10 02:57:43;;;;;;;0.10;0.10;;;10.00;99.90;;;;;;5050963;28;20087;-79
2022/10/10 03:00:09;;;;;;;0.10;0.10;;;10.10;99.90;;;;;;5050999;28;20025;-77
2022/10/10 03:02:35;;;;;;;0.60;0.60;;;10.10;99.90;;;;;;5052183;28;20028;-79
2022/10/10 03:05:01;;;;;;;0.10;0.10;;;10.00;99.90;;;;;;5034103;28;20427;-77
2022/10/10 03:07:26;;;;;;;0.08;0.08;;;10.00;99.90;;;;;;5050755;28;20203;-77
2022/10/10 03:09:52;;;;;;;0.10;0.10;;;10.00;99.90;;;;;;5052048;28;20536;-77
2022/10/10 03:12:18;;;;;;;0.10;0.10;;;10.10;99.90;;;;;;5050709;28;20099;-77
2022/10/10 03:14:44;;;;;;;0.20;0.20;;;10.20;99.90;;;;;;5051907;28;20025;-76
2022/10/10 03:17:10;;;;;;;0.10;0.10;;;10.10;99.90;;;;;;5051924;28;20036;-77
2022/10/10 03:19:36;;;;;;;0.10;0.10;;;10.00;99.90;;;;;;5052155;28;20433;-76
2022/10/10 03:22:02;;;;;;;0.30;0.30;;;10.00;99.90;;;;;;5050901;28;20534;-77
2022/10/10 03:24:28;;;;;;;0.10;0.10;;;9.90;99.90;;;;;;5051884;28;20116;-77
2022/10/10 03:26:54;;;;;;;0.15;0.15;;;10.00;99.90;;;;;;5051617;28;20100;-77
2022/10/10 03:29:20;;;;;;;0.10;0.10;;;10.10;99.90;;;;;;5050372;28;20033;-78
2022/10/10 03:31:45;;;;;;;2.10;0.40;;;10.20;99.90;;;;;;5034016;28;20453;-79
2022/10/10 03:34:11;;;;;;;0.10;0.10;;;10.30;99.90;;;;;;5050249;28;20021;-76
2022/10/10 03:36:37;;;;;;;0.32;0.32;;;10.20;99.90;;;;;;5051569;28;20021;-76
2022/10/10 03:39:03;;;;;;;0.10;0.10;;;10.30;99.90;;;;;;5051771;28;20018;-77
2022/10/10 03:41:29;;;;;;;0.10;0.10;;;10.30;99.90;;;;;;5050464;28;20118;-77
2022/10/10 03:43:55;;;;;;;0.10;0.10;;;10.30;99.90;;;;;;5054769;28;20025;-77
2022/10/10 03:46:21;;;;;;;2.92;1.65;;;10.30;99.90;;;;;;5037643;28;20028;-77
2022/10/10 03:48:48;;;;;;;0.10;0.10;;;10.30;99.90;;;;;;5054518;28;20048;-77
2022/10/10 03:51:13;;;;;;;0.10;0.10;;;10.20;99.90;;;;;;5055750;28;20366;-76
2022/10/10 03:53:39;;;;;;;0.10;0.10;;;10.40;99.90;;;;;;5055607;28;20025;-77
2022/10/10 03:56:05;;;;;;;0.10;0.10;;;10.60;99.90;;;;;;5055448;28;20428;-77
2022/10/10 03:58:31;;;;;;;0.10;0.10;;;10.70;99.90;;;;;;5054616;28;20028;-77
2022/10/10 04:00:59;;;;;;;0.10;0.10;;;10.70;99.90;;;;;;5055390;28;20094;-77
2022/10/10 04:03:25;;;;;;;0.10;0.10;;;10.70;99.90;;;;;;5055513;28;20025;-77
2022/10/10 04:05:52;;;;;;;0.10;0.10;;;10.70;99.90;;;;;;5055405;28;20035;-77
2022/10/10 04:08:18;;;;;;;0.10;0.10;;;10.80;99.90;;;;;;5037448;28;20565;-77
2022/10/10 04:10:47;;;;;;;0.10;0.10;;;10.70;99.90;;;;;;5055253;28;20025;-77
2022/10/10 04:13:13;;;;;;;0.10;0.10;;;10.70;99.90;;;;;;5055439;28;20049;-77
2022/10/10 04:15:38;;;;;;;0.10;0.10;;;10.70;99.90;;;;;;5055101;28;20064;-79
2022/10/10 04:18:04;;;;;;;0.10;0.10;;;10.70;99.90;;;;;;5054122;28;20052;-80
2022/10/10 04:20:31;;;;;;;0.10;0.10;;;10.70;99.90;;;;;;5055324;28;20132;-76
2022/10/10 04:22:56;;;;;;;0.13;0.13;;;10.70;99.90;;;;;;5055186;28;20032;-77
2022/10/10 04:25:23;;;;;;;0.25;0.25;;;10.60;99.90;;;;;;5055023;28;20029;-76
2022/10/10 04:27:48;;;;;;;0.20;0.20;;;10.30;99.90;;;;;;5053740;28;20025;-77
2022/10/10 04:30:14;;;;;;;0.10;0.10;;;10.20;99.90;;;;;;5053750;28;20031;-77
2022/10/10 04:32:40;;;;;;;0.20;0.20;;;10.20;99.90;;;;;;5053795;28;20384;-77
2022/10/10 04:35:06;;;;;;;0.20;0.20;;;10.30;99.90;;;;;;5053278;28;20021;-77
2022/10/10 04:37:33;;;;;;;0.20;0.20;;;10.20;99.90;;;;;;5055060;28;20025;-77
2022/10/10 04:39:59;;;;;;;0.28;0.28;;;10.20;99.90;;;;;;5054773;28;20087;-79
2022/10/10 04:42:25;;;;;;;0.10;0.10;;;10.20;99.90;;;;;;5053633;28;20500;-80
2022/10/10 04:44:51;;;;;;;0.13;0.13;;;10.20;99.90;;;;;;5053481;28;20033;-77
2022/10/10 04:47:16;;;;;;;0.10;0.10;;;10.20;99.90;;;;;;5054494;28;20508;-77
2022/10/10 04:49:42;;;;;;;0.17;0.17;;;10.10;99.90;;;;;;5053426;28;20021;-77
2022/10/10 04:52:09;;;;;;;0.20;0.20;;;10.10;99.90;;;;;;5053300;28;20055;-77
2022/10/10 04:54:35;;;;;;;3.55;1.27;;;9.90;99.90;;;;;;5053176;28;20055;-77
2022/10/10 04:57:01;;;;;;;0.10;0.10;;;9.80;99.90;;;;;;5036422;28;20052;-77
2022/10/10 04:59:27;;;;;;;0.10;0.10;;;9.80;99.90;;;;;;5036690;28;20056;-76
2022/10/10 05:01:52;;;;;;;0.30;0.30;;;10.00;99.90;;;;;;5054370;28;20025;-76
2022/10/10 05:04:18;;;;;;;0.10;0.10;;;10.10;99.90;;;;;;5054155;28;20032;-77
2022/10/10 05:06:44;;;;;;;0.63;0.63;;;10.10;99.90;;;;;;5053999;28;20028;-76
2022/10/10 05:09:10;;;;;;;0.25;0.25;;;10.20;99.90;;;;;;5052850;28;20051;-80
2022/10/10 05:11:35;;;;;;;0.10;0.10;;;10.20;99.90;;;;;;5052695;28;20031;-79
2022/10/10 05:14:02;;;;;;;0.10;0.10;;;10.20;99.90;;;;;;5053984;28;20025;-76
2022/10/10 05:16:28;;;;;;;0.20;0.20;;;10.20;99.90;;;;;;5052668;28;20021;-76
2022/10/10 05:18:56;;;;;;;0.20;0.20;;;10.10;99.90;;;;;;5055062;28;20017;-76
2022/10/10 05:21:21;;;;;;;0.10;0.10;;;10.20;99.90;;;;;;5032649;28;20026;-76
2022/10/10 05:23:47;;;;;;;0.20;0.20;;;10.20;99.90;;;;;;5016065;28;20031;-76
2022/10/10 05:26:13;;;;;;;0.20;0.20;;;10.20;99.90;;;;;;5048964;28;20468;-76
2022/10/10 05:28:39;;;;;;;0.10;0.10;;;10.20;99.90;;;;;;5073751;28;20024;-76
2022/10/10 05:31:05;;;;;;;0.10;0.10;;;10.00;99.90;;;;;;5072553;28;20468;-76
2022/10/10 05:33:32;;;;;;;2.15;0.38;;;10.00;99.90;;;;;;5073308;28;20017;-76
2022/10/10 05:36:04;;;;;;;0.15;0.15;;;10.00;99.90;;;;;;5055728;28;20108;-77
2022/10/10 05:38:30;;;;;;;0.10;0.10;;;10.00;99.90;;;;;;5052495;28;20539;-78
2022/10/10 05:40:56;;;;;;;0.20;0.20;;;10.00;99.90;;;;;;5052171;28;20040;-77
2022/10/10 05:43:22;;;;;;;0.10;0.10;;;9.90;99.90;;;;;;5053318;28;20404;-81
2022/10/10 05:45:48;;;;;;;0.10;0.10;;;10.00;99.90;;;;;;5052986;28;20520;-76
2022/10/10 05:48:14;;;;;;;0.52;0.40;;;10.00;99.90;;;;;;5051871;28;20029;-76
2022/10/10 05:50:46;;;;;;;0.30;0.30;;;9.90;99.90;;;;;;5052114;28;20028;-76
2022/10/10 05:53:12;;;;;;;0.50;0.50;;;10.00;99.90;;;;;;5053232;28;20096;-76
2022/10/10 05:55:38;;;;;;;0.13;0.13;;;10.10;99.90;;;;;;5035274;28;20472;-76
2022/10/10 05:58:04;;;;;;;0.45;0.45;;;10.10;99.90;;;;;;5053038;28;20021;-76
2022/10/10 06:00:30;;;;;;;0.90;0.90;;;10.10;99.90;;;;;;5035231;28;20115;-76
2022/10/10 06:02:59;;;;;;;2.47;2.38;;;10.20;99.90;;;;;;5053076;28;20120;-75
2022/10/10 06:05:24;;;;;;;1.63;0.40;;;10.40;99.90;;;;;;5051006;28;20024;-75
2022/10/10 06:07:51;;;;;;;0.28;0.28;;;10.40;99.90;;;;;;5052996;28;20033;-76
2022/10/10 06:10:18;;;;;;;0.20;0.20;;;10.50;99.90;;;;;;5040136;28;20032;-76
2022/10/10 06:12:43;;;;;;;0.15;0.15;;;10.50;99.90;;;;;;5067551;28;20031;-76
2022/10/10 06:15:09;;;;;;;0.25;0.22;;;10.60;99.90;;;;;;5053027;28;20107;-77
2022/10/10 06:17:35;;;;;;;0.10;0.10;;;10.60;99.90;;;;;;5054865;28;20084;-77
2022/10/10 06:20:01;;;;;;;0.08;0.08;;;10.70;99.90;;;;;;5054895;28;20025;-79
2022/10/10 06:22:27;;;;;;;0.10;0.10;;;10.90;99.90;;;;;;5072664;28;20116;-78
2022/10/10 06:24:53;;;;;;;1.55;1.17;;;11.00;99.90;;;;;;5071270;28;20029;-76
2022/10/10 06:27:19;;;;;;;0.10;0.10;;;11.10;99.90;;;;;;5070966;28;20082;-76
2022/10/10 06:29:44;;;;;;;0.03;0.03;;;11.10;99.90;;;;;;5071245;28;20032;-76
2022/10/10 06:32:10;;;;;;;0.10;0.10;;;11.20;99.90;;;;;;5071246;28;20048;-77
2022/10/10 06:34:36;;;;;;;0.10;0.10;;;11.20;99.90;;;;;;5072093;28;20048;-76
2022/10/10 06:37:02;;;;;;;0.00;0.00;;;11.20;99.90;;;;;;5071150;28;20027;-78
2022/10/10 06:39:28;;;;;;;1.02;0.57;;;11.30;99.90;;;;;;5054206;28;20024;-77
2022/10/10 06:41:53;;;;;;;0.10;0.10;;;11.40;99.90;;;;;;5071020;28;20388;-78
2022/10/10 06:44:19;;;;;;;0.10;0.10;;;11.50;99.90;;;;;;5070939;28;20036;-76
2022/10/10 06:46:45;;;;;;;0.10;0.10;;;11.60;99.90;;;;;;5070875;28;20110;-76
2022/10/10 06:49:11;;;;;;;0.05;0.05;;;11.60;99.90;;;;;;5054392;28;20020;-76
2022/10/10 06:51:38;;;;;;;0.15;0.15;;;11.70;99.90;;;;;;5071009;28;20024;-76
2022/10/10 06:54:04;;;;;;;0.10;0.10;;;11.80;99.90;;;;;;5071036;28;20021;-76
2022/10/10 06:56:29;;;;;;;0.13;0.13;;;11.80;99.90;;;;;;5070567;28;20033;-76
2022/10/10 06:58:55;;;;;;;0.10;0.10;;;12.00;99.90;;;;;;5072185;28;20100;-76
2022/10/10 07:01:23;;;;;;;0.10;0.10;;;12.10;99.90;;;;;;5051017;28;20027;-76
2022/10/10 07:03:49;;;;;;;0.30;0.30;;;12.10;99.90;;;;;;5045796;28;20147;-76
2022/10/10 07:06:15;;;;;;;0.05;0.05;;;12.20;99.90;;;;;;5045650;28;20033;-76
2022/10/10 07:08:41;;;;;;;0.10;0.10;;;12.30;99.90;;;;;;5039996;28;20052;-82
2022/10/10 07:11:08;;;;;;;0.10;0.10;;;12.50;99.90;;;;;;5039321;28;20033;-76
2022/10/10 07:13:35;;;;;;;0.17;0.17;;;12.70;99.90;;;;;;5022496;28;20043;-76
2022/10/10 07:16:01;;;;;;;0.10;0.10;;;12.80;99.90;;;;;;5039846;28;20391;-79
2022/10/10 07:18:27;;;;;;;0.40;0.40;;;12.90;99.90;;;;;;5038772;28;20025;-76
2022/10/10 07:21:00;;;;;;;0.10;0.10;;;13.10;99.90;;;;;;5038795;28;20044;-79
2022/10/10 07:23:27;;;;;;;0.10;0.10;;;13.30;99.90;;;;;;5038741;28;20128;-81
2022/10/10 07:26:02;;;;;;;0.10;0.10;;;13.40;99.90;;;;;;5022436;28;20512;-82
2022/10/10 07:28:28;;;;;;;0.20;0.20;;;13.60;99.90;;;;;;5038714;28;20389;-78
2022/10/10 07:31:08;;;;;;;0.00;0.00;;;13.80;99.90;;;;;;5040789;28;20396;-83
2022/10/10 07:33:42;;;;;;;0.10;0.10;;;13.90;99.90;;;;;;5021999;28;20421;-75
2022/10/10 07:36:07;;;;;;;0.00;0.00;;;14.10;99.90;;;;;;5038865;28;20029;-82
2022/10/10 07:38:35;;;;;;;0.10;0.10;;;14.30;99.90;;;;;;5040615;28;20040;-77
2022/10/10 07:41:21;;;;;;;0.10;0.10;;;14.30;99.90;;;;;;5039561;28;20043;-81
2022/10/10 07:43:52;;;;;;;0.43;0.43;;;14.40;99.90;;;;;;5038283;28;20045;-81
2022/10/10 07:46:19;;;;;;;0.20;0.20;;;14.50;99.90;;;;;;5040388;28;20501;-80
2022/10/10 07:48:45;;;;;;;0.10;0.10;;;14.60;99.90;;;;;;5040081;28;20025;-76
2022/10/10 07:51:11;;;;;;;0.10;0.10;;;14.80;99.90;;;;;;5038942;28;20029;-81
2022/10/10 07:53:39;;;;;;;0.10;0.10;;;14.90;99.90;;;;;;5038289;28;20308;-76
2022/10/10 07:56:08;;;;;;;0.10;0.10;;;15.00;99.90;;;;;;5038877;28;20025;-79
2022/10/10 07:58:35;;;;;;;0.10;0.10;;;15.10;99.90;;;;;;5038989;28;20484;-80
2022/10/10 08:01:03;;;;;;;0.10;0.10;;;15.30;99.90;;;;;;5038674;28;20025;-80
2022/10/10 08:03:29;;;;;;;0.20;0.20;;;15.40;99.90;;;;;;5040222;28;20036;-79
2022/10/10 08:05:55;;;;;;;0.00;0.00;;;15.50;99.90;;;;;;5039795;28;20029;-82
2022/10/10 08:08:21;;;;;;;0.10;0.10;;;15.60;99.90;;;;;;5040315;28;20162;-81
2022/10/10 08:10:47;;;;;;;0.10;0.10;;;15.70;99.90;;;;;;5039588;28;20112;-76
2022/10/10 08:13:12;;;;;;;0.20;0.20;;;15.70;99.90;;;;;;5038770;28;20033;-78
2022/10/10 08:15:39;;;;;;;0.10;0.10;;;15.70;99.90;;;;;;5037821;28;20028;-76
2022/10/10 08:18:05;;;;;;;0.20;0.20;;;15.70;99.90;;;;;;5038740;28;20063;-79
2022/10/10 08:20:31;;;;;;;0.10;0.10;;;15.80;99.90;;;;;;5022160;28;20081;-79
2022/10/10 08:22:56;;;;;;;0.10;0.10;;;15.90;99.90;;;;;;5040689;28;20405;-80
2022/10/10 08:25:22;;;;;;;0.10;0.10;;;15.90;99.90;;;;;;5021701;28;20032;-76
2022/10/10 08:27:48;;;;;;;0.10;0.10;;;16.10;99.90;;;;;;5040472;28;20067;-77
2022/10/10 08:30:14;;;;;;;0.10;0.10;;;16.20;99.90;;;;;;5043693;28;20036;-76
2022/10/10 08:32:39;;;;;;;0.10;0.10;;;16.30;99.90;;;;;;5043505;28;20033;-81
2022/10/10 08:35:06;;;;;;;0.10;0.10;;;16.40;99.90;;;;;;5043597;28;20070;-77
2022/10/10 08:37:31;;;;;;;0.13;0.13;;;16.60;99.90;;;;;;5043628;28;20041;-76
2022/10/10 08:39:57;;;;;;;0.10;0.10;;;16.60;99.90;;;;;;5042434;28;20217;-76
2022/10/10 08:42:36;;;;;;;0.10;0.10;;;16.80;99.90;;;;;;5043095;28;20029;-76
2022/10/10 08:45:16;;;;;;;0.10;0.10;;;16.90;99.90;;;;;;5043427;28;20063;-79
2022/10/10 08:48:01;;;;;;;0.10;0.10;;;17.10;99.90;;;;;;5042249;28;20712;-79
2022/10/10 08:50:29;;;;;;;6.00;1.13;;;17.10;99.90;;;;;;5042078;28;20037;-76
2022/10/10 08:53:16;;;;;;;3.60;0.52;;;17.10;99.90;;;;;;5044224;28;20025;-75
2022/10/10 08:55:42;;;;;;;1.13;0.40;;;17.10;99.90;;;;;;5043947;28;20036;-79
2022/10/10 08:58:17;;;;;;;0.20;0.20;;;17.10;99.90;;;;;;5043385;28;20091;-79
2022/10/10 09:01:00;;;;;;;0.68;0.68;;;17.30;99.90;;;;;;5042117;28;20033;-79
2022/10/10 09:03:35;;;;;;;0.70;0.63;;;17.50;99.90;;;;;;5041703;28;20649;-79
2022/10/10 09:06:16;;;;;;;0.10;0.10;;;17.60;99.90;;;;;;5041537;28;20181;-79
2022/10/10 09:09:09;;;;;;;1.85;1.70;;;17.50;99.90;;;;;;5043094;28;20036;-77
2022/10/10 09:12:00;;;;;;;0.08;0.08;;;17.60;99.90;;;;;;5041475;28;20041;-78
2022/10/10 09:14:28;;;;;;;0.13;0.13;;;17.70;99.90;;;;;;5023941;28;20515;-79
2022/10/10 09:17:12;;;;;;;0.10;0.10;;;17.70;99.90;;;;;;5047299;28;20028;-76
2022/10/10 09:20:02;;;;;;;0.10;0.10;;;17.80;99.90;;;;;;5050118;28;20389;-76
2022/10/10 09:22:35;;;;;;;0.10;0.10;;;17.90;99.90;;;;;;5063905;28;20511;-76
2022/10/10 09:25:13;;;;;;;0.17;0.17;;;18.20;99.90;;;;;;5037884;28;20040;-79
2022/10/10 09:27:43;;;;;;;0.40;0.40;;;18.30;99.90;;;;;;5062491;28;20396;-77
2022/10/10 09:30:19;;;;;;;0.10;0.10;;;18.50;99.90;;;;;;5052976;28;20357;-76
2022/10/10 09:33:21;;;;;;;0.50;0.50;;;18.70;99.90;;;;;;5052321;28;20029;-76
2022/10/10 09:35:47;;;;;;;;;;;18.90;99.90;;;;;;5005083;28;20082;-76
2022/10/10 09:38:34;;;;;;;0.10;0.10;;;18.90;99.90;;;;;;5052339;28;19955;-76
2022/10/10 09:41:22;;;;;;;0.05;0.05;;;19.30;99.90;;;;;;5051989;28;20021;-76
2022/10/10 09:43:53;;;;;;;0.08;0.08;;;19.40;99.90;;;;;;5052044;28;20055;-76
2022/10/10 09:46:19;;;;;;;0.00;0.00;;;19.50;99.90;;;;;;5052204;28;20065;-78
2022/10/10 09:48:45;;;;;;;0.10;0.10;;;19.60;99.90;;;;;;5051827;28;20051;-76
2022/10/10 09:51:17;;;;;;;0.30;0.30;;;19.50;99.90;;;;;;5052452;28;20025;-78
2022/10/10 09:53:46;;;;;;;0.10;0.10;;;19.40;99.90;;;;;;5061629;28;20060;-79
2022/10/10 09:56:28;;;;;;;0.10;0.10;;;19.20;99.90;;;;;;5052187;28;20017;-77
2022/10/10 09:58:54;;;;;;;;;;;19.50;99.90;;;;;;5052182;28;20405;-77
2022/10/10 10:01:26;;;;;;;0.10;0.10;;;19.50;99.90;;;;;;5051471;28;20365;-77
2022/10/10 10:04:21;;;;;;;;;;;19.50;99.90;;;;;;5051550;28;20029;-79
2022/10/10 10:06:50;;;;;;;0.10;0.10;;;19.50;99.90;;;;;;5038213;28;19985;-80
2022/10/10 10:09:21;;;;;;;0.10;0.10;;;19.60;99.90;;;;;;5051804;28;20053;-76
2022/10/10 10:11:54;;;;;;;0.10;0.10;;;19.50;99.90;;;;;;5052820;28;20021;-77
2022/10/10 10:14:29;;;;;;;0.10;0.10;;;19.70;99.90;;;;;;5051356;28;20025;-78
2022/10/10 10:17:08;;;;;;;0.10;0.10;;;19.80;99.90;;;;;;5050774;28;20056;-76
2022/10/10 10:19:39;;;;;;;0.30;0.30;;;19.90;99.90;;;;;;5050875;28;20485;-76
2022/10/10 10:22:21;;;;;;;;;;;19.60;99.90;;;;;;5052990;28;20506;-76
2022/10/10 10:24:47;;;;;;;0.15;0.15;;;19.60;99.90;;;;;;5052661;28;19930;-75
2022/10/10 10:27:22;;;;;;;0.20;0.20;;;19.50;99.90;;;;;;5053257;28;20037;-74
2022/10/10 10:29:57;;;;;;;0.10;0.10;;;19.30;99.90;;;;;;5052557;28;20496;-73
2022/10/10 10:32:40;;;;;;;0.10;0.10;;;19.40;99.90;;;;;;5051947;28;20021;-77
2022/10/10 10:35:06;;;;;;;2.05;1.45;;;19.40;99.90;;;;;;5052232;28;20043;-77
2022/10/10 10:37:51;;;;;;;0.10;0.10;;;19.50;99.90;;;;;;5049941;28;20029;-77
2022/10/10 10:40:35;;;;;;;0.10;0.10;;;19.60;99.90;;;;;;5052575;28;20032;-77
2022/10/10 10:43:15;;;;;;;0.10;0.10;;;19.50;99.90;;;;;;5052037;28;20029;-77
2022/10/10 10:46:07;;;;;;;0.13;0.13;;;19.70;99.90;;;;;;5050569;28;20029;-80
2022/10/10 10:48:39;;;;;;;0.08;0.08;;;19.80;99.90;;;;;;5050790;28;20032;-77
2022/10/10 10:51:26;;;;;;;0.00;0.00;;;20.20;99.90;;;;;;5050474;28;20501;-78
2022/10/10 10:53:59;;;;;;;0.28;0.28;;;20.70;99.90;;;;;;5033718;28;20497;-77
2022/10/10 10:56:27;;;;;;;0.20;0.20;;;22.00;98.40;;;;;;5051811;28;20032;-79
2022/10/10 10:59:17;;;;;;;0.00;0.00;;;22.80;95.10;;;;;;5050728;28;20017;-76
2022/10/10 11:01:48;;;;;;;0.32;0.10;;;23.00;91.50;;;;;;5051507;28;20032;-76
2022/10/10 11:04:41;;;;;;;0.00;0.00;;;23.50;90.10;;;;;;5049940;28;20032;-75
2022/10/10 11:07:31;;;;;;;0.10;0.10;;;23.80;87.60;;;;;;5031360;28;20035;-75
2022/10/10 11:10:18;;;;;;;0.10;0.10;;;23.50;85.80;;;;;;5049758;28;20112;-78
2022/10/10 11:13:01;;;;;;;0.10;0.10;;;23.50;84.50;;;;;;5050039;28;20032;-75
2022/10/10 11:15:32;;;;;;;0.00;0.00;;;23.80;82.50;;;;;;5033266;28;20384;-75
2022/10/10 11:18:24;;;;;;;0.00;0.00;;;24.40;81.90;;;;;;5050237;28;20500;-74
2022/10/10 11:21:19;;;;;;;0.00;0.00;;;24.80;78.80;;;;;;5044811;28;20040;-75
2022/10/10 11:23:53;;;;;;;0.00;0.00;;;24.80;78.20;;;;;;5031366;28;20505;-78
2022/10/10 11:26:28;;;;;;;0.15;0.15;;;24.30;80.20;;;;;;5031761;28;20087;-80
2022/10/10 11:29:04;;;;;;;0.00;0.00;;;24.30;80.20;;;;;;5051592;28;20043;-76
2022/10/10 11:31:40;;;;;;;6.07;0.30;;;24.30;79.20;;;;;;5050490;28;20362;-76
2022/10/10 11:34:13;;;;;;;0.90;0.57;;;23.50;79.90;;;;;;5051606;28;20385;-75
2022/10/10 11:36:43;;;;;;;0.00;0.00;;;22.40;83.60;;;;;;5051316;28;20017;-75
2022/10/10 11:39:35;;;;;;;0.20;0.20;;;22.40;86.70;;;;;;5050307;28;20017;-75
2022/10/10 11:42:22;;;;;;;2.20;0.75;;;22.90;85.70;;;;;;5049934;28;20103;-75
2022/10/10 11:44:58;;;;;;;0.32;0.22;;;24.10;83.20;;;;;;5050017;28;20025;-76
2022/10/10 11:47:42;;;;;;;0.10;0.10;;;24.90;77.70;;;;;;5049396;28;20083;-75
2022/10/10 11:50:17;;;;;;;0.20;0.20;;;25.00;77.60;;;;;;5050316;28;20096;-76
2022/10/10 11:53:06;;;;;;;0.35;0.30;;;24.30;77.20;;;;;;5033042;28;20119;-75
2022/10/10 11:55:57;;;;;;;0.00;0.00;;;24.60;78.00;;;;;;5050068;28;20495;-76
2022/10/10 11:58:35;;;;;;;0.00;0.00;;;24.50;76.90;;;;;;5050755;28;20036;-74
2022/10/10 12:01:24;;;;;;;0.30;0.30;;;24.70;76.20;;;;;;5049548;28;20427;-75
2022/10/10 12:03:51;;;;;;;0.00;0.00;;;24.90;75.70;;;;;;5046905;28;20057;-77
2022/10/10 12:06:39;;;;;;;0.00;0.00;;;25.40;73.50;;;;;;5053852;28;20029;-76
2022/10/10 12:09:16;;;;;;;3.72;1.08;;;26.20;69.80;;;;;;5053502;28;20025;-76
2022/10/10 12:11:51;;;;;;;0.28;0.20;;;26.70;67.60;;;;;;5053966;28;20044;-76
2022/10/10 12:14:20;;;;;;;0.00;0.00;;;27.10;68.00;;;;;;5054724;28;20389;-75
2022/10/10 12:16:47;;;;;;;0.20;0.20;;;27.30;66.30;;;;;;5053657;28;20096;-74
2022/10/10 12:19:17;;;;;;;0.10;0.10;;;27.10;64.90;;;;;;5054034;28;20028;-75
2022/10/10 12:22:04;;;;;;;0.43;0.40;;;26.30;66.50;;;;;;5053732;28;20021;-76
2022/10/10 12:24:36;;;;;;;1.08;0.43;;;25.90;69.90;;;;;;5052698;28;20025;-78
2022/10/10 12:27:01;;;;;;;0.10;0.10;;;25.60;69.20;;;;;;5053301;28;20035;-75
2022/10/10 12:29:55;;;;;;;0.10;0.10;;;25.10;70.80;;;;;;5054262;28;20540;-78
2022/10/10 12:32:27;;;;;;;0.00;0.00;;;24.80;72.30;;;;;;5053332;28;20044;-79
2022/10/10 12:34:52;;;;;;;0.20;0.20;;;24.60;73.90;;;;;;5037648;28;20021;-78
2022/10/10 12:37:32;;;;;;;0.43;0.43;;;25.10;72.50;;;;;;5053368;28;20083;-75
2022/10/10 12:40:04;;;;;;;0.00;0.00;;;25.80;70.20;;;;;;5038337;28;20083;-75
2022/10/10 12:42:39;;;;;;;0.10;0.10;;;26.40;69.80;;;;;;5053239;28;20033;-83
2022/10/10 12:45:30;;;;;;;0.47;0.43;;;26.70;68.10;;;;;;5033474;28;20036;-79
2022/10/10 12:47:59;;;;;;;0.00;0.00;;;26.80;67.50;;;;;;5035436;28;20118;-76
2022/10/10 12:50:27;;;;;;;0.00;0.00;;;26.90;67.90;;;;;;5054327;28;20271;-76
2022/10/10 12:53:00;;;;;;;0.00;0.00;;;26.30;67.30;;;;;;5053131;28;20044;-79
2022/10/10 12:55:51;;;;;;;0.00;0.00;;;25.70;69.20;;;;;;5052910;28;20495;-76
2022/10/10 12:58:26;;;;;;;0.10;0.10;;;24.50;72.90;;;;;;5053417;28;20063;-79
2022/10/10 13:00:54;;;;;;;0.20;0.20;;;23.60;74.70;;;;;;5054143;28;20029;-76
2022/10/10 13:03:36;;;;;;;0.08;0.08;;;23.40;76.40;;;;;;5052339;28;20036;-77
2022/10/10 13:06:33;;;;;;;0.05;0.05;;;23.20;77.60;;;;;;5051718;28;20564;-76
2022/10/10 13:09:01;;;;;;;5.95;0.52;;;23.20;77.30;;;;;;5052993;28;20029;-76
2022/10/10 13:11:27;;;;;;;0.10;0.10;;;22.50;78.90;;;;;;5052697;28;20048;-76